sensor_id;sensor_type;location;lat;lon;timestamp;P1;durP1;ratioP1;P2;durP2;ratioP2
70126;SDS011;57491;42.694;23.314;2024-02-28T00:01:05;22.52;;;12.52;;
70126;SDS011;57491;42.694;23.314;2024-02-28T00:03:32;21.15;;;12.50;;
70126;SDS011;57491;42.694;23.314;2024-02-28T00:06:01;23.85;;;13.48;;
70126;SDS011;57491;42.694;23.314;2024-02-28T00:08:28;22.75;;;13.45;;
70126;SDS011;57491;42.694;23.314;2024-02-28T00:10:55;24.27;;;12.98;;
70126;SDS011;57491;42.694;23.314;2024-02-28T00:13:23;21.47;;;12.70;;
70126;SDS011;57491;42.694;23.314;2024-02-28T00:15:50;23.75;;;13.73;;
70126;SDS011;57491;42.694;23.314;2024-02-28T00:18:17;26.60;;;14.13;;
70126;SDS011;57491;42.694;23.314;2024-02-28T00:20:44;21.48;;;12.60;;
70126;SDS011;57491;42.694;23.314;2024-02-28T00:23:13;26.45;;;13.60;;
70126;SDS011;57491;42.694;23.314;2024-02-28T00:25:41;30.10;;;14.95;;
70126;SDS011;57491;42.694;23.314;2024-02-28T00:28:08;25.52;;;14.05;;
70126;SDS011;57491;42.694;23.314;2024-02-28T00:30:35;26.10;;;13.98;;
70126;SDS011;57491;42.694;23.314;2024-02-28T00:33:02;26.07;;;13.80;;
70126;SDS011;57491;42.694;23.314;2024-02-28T00:35:31;27.20;;;15.10;;
70126;SDS011;57491;42.694;23.314;2024-02-28T00:37:59;21.15;;;13.70;;
70126;SDS011;57491;42.694;23.314;2024-02-28T00:40:28;28.58;;;15.15;;
70126;SDS011;57491;42.694;23.314;2024-02-28T00:42:56;31.25;;;15.43;;
70126;SDS011;57491;42.694;23.314;2024-02-28T00:45:23;25.40;;;15.32;;
70126;SDS011;57491;42.694;23.314;2024-02-28T00:47:51;25.43;;;14.87;;
70126;SDS011;57491;42.694;23.314;2024-02-28T00:50:20;25.25;;;15.23;;
70126;SDS011;57491;42.694;23.314;2024-02-28T00:52:48;27.45;;;16.30;;
70126;SDS011;57491;42.694;23.314;2024-02-28T00:55:15;30.80;;;16.47;;
70126;SDS011;57491;42.694;23.314;2024-02-28T00:57:45;27.75;;;16.23;;
70126;SDS011;57491;42.694;23.314;2024-02-28T01:00:13;30.90;;;16.30;;
70126;SDS011;57491;42.694;23.314;2024-02-28T01:02:41;29.73;;;15.85;;
70126;SDS011;57491;42.694;23.314;2024-02-28T01:05:08;27.13;;;15.03;;
70126;SDS011;57491;42.694;23.314;2024-02-28T01:07:35;25.05;;;15.27;;
70126;SDS011;57491;42.694;23.314;2024-02-28T01:10:02;25.98;;;14.98;;
70126;SDS011;57491;42.694;23.314;2024-02-28T01:12:30;27.83;;;15.52;;
70126;SDS011;57491;42.694;23.314;2024-02-28T01:14:59;23.10;;;14.83;;
70126;SDS011;57491;42.694;23.314;2024-02-28T01:17:26;29.38;;;15.98;;
70126;SDS011;57491;42.694;23.314;2024-02-28T01:19:53;29.37;;;16.27;;
70126;SDS011;57491;42.694;23.314;2024-02-28T01:22:21;27.43;;;15.87;;
70126;SDS011;57491;42.694;23.314;2024-02-28T01:24:48;26.08;;;16.10;;
70126;SDS011;57491;42.694;23.314;2024-02-28T01:27:15;31.17;;;16.17;;
70126;SDS011;57491;42.694;23.314;2024-02-28T01:29:42;26.87;;;15.60;;
70126;SDS011;57491;42.694;23.314;2024-02-28T01:32:11;26.23;;;15.27;;
70126;SDS011;57491;42.694;23.314;2024-02-28T01:34:38;27.10;;;15.35;;
70126;SDS011;57491;42.694;23.314;2024-02-28T01:37:05;28.67;;;14.75;;
70126;SDS011;57491;42.694;23.314;2024-02-28T01:39:33;23.60;;;15.23;;
70126;SDS011;57491;42.694;23.314;2024-02-28T01:42:00;26.40;;;14.27;;
70126;SDS011;57491;42.694;23.314;2024-02-28T01:44:27;27.75;;;15.85;;
70126;SDS011;57491;42.694;23.314;2024-02-28T01:46:54;24.42;;;14.07;;
70126;SDS011;57491;42.694;23.314;2024-02-28T01:49:25;29.75;;;14.65;;
70126;SDS011;57491;42.694;23.314;2024-02-28T01:51:53;25.48;;;14.95;;
70126;SDS011;57491;42.694;23.314;2024-02-28T01:54:22;27.02;;;15.23;;
70126;SDS011;57491;42.694;23.314;2024-02-28T01:56:49;30.08;;;16.42;;
70126;SDS011;57491;42.694;23.314;2024-02-28T01:59:17;28.98;;;15.63;;
70126;SDS011;57491;42.694;23.314;2024-02-28T02:01:45;30.67;;;15.45;;
70126;SDS011;57491;42.694;23.314;2024-02-28T02:04:12;25.03;;;15.40;;
70126;SDS011;57491;42.694;23.314;2024-02-28T02:06:42;28.57;;;15.57;;
70126;SDS011;57491;42.694;23.314;2024-02-28T02:09:10;27.50;;;15.52;;
70126;SDS011;57491;42.694;23.314;2024-02-28T02:11:38;24.60;;;15.13;;
70126;SDS011;57491;42.694;23.314;2024-02-28T02:14:06;30.55;;;16.33;;
70126;SDS011;57491;42.694;23.314;2024-02-28T02:16:33;34.40;;;15.85;;
70126;SDS011;57491;42.694;23.314;2024-02-28T02:19:00;24.50;;;15.02;;
70126;SDS011;57491;42.694;23.314;2024-02-28T02:21:29;28.95;;;15.95;;
70126;SDS011;57491;42.694;23.314;2024-02-28T02:23:59;30.55;;;16.95;;
70126;SDS011;57491;42.694;23.314;2024-02-28T02:26:26;28.17;;;15.57;;
70126;SDS011;57491;42.694;23.314;2024-02-28T02:28:54;29.93;;;16.10;;
70126;SDS011;57491;42.694;23.314;2024-02-28T02:31:21;34.27;;;16.20;;
70126;SDS011;57491;42.694;23.314;2024-02-28T02:33:48;29.15;;;16.30;;
70126;SDS011;57491;42.694;23.314;2024-02-28T02:36:15;36.88;;;17.27;;
70126;SDS011;57491;42.694;23.314;2024-02-28T02:38:43;30.30;;;16.08;;
70126;SDS011;57491;42.694;23.314;2024-02-28T02:41:11;32.03;;;16.20;;
70126;SDS011;57491;42.694;23.314;2024-02-28T02:43:39;32.13;;;15.70;;
70126;SDS011;57491;42.694;23.314;2024-02-28T02:46:06;28.30;;;15.80;;
70126;SDS011;57491;42.694;23.314;2024-02-28T02:48:33;26.67;;;16.40;;
70126;SDS011;57491;42.694;23.314;2024-02-28T02:51:00;36.97;;;16.83;;
70126;SDS011;57491;42.694;23.314;2024-02-28T02:53:28;32.60;;;17.02;;
70126;SDS011;57491;42.694;23.314;2024-02-28T02:55:55;32.93;;;15.53;;
70126;SDS011;57491;42.694;23.314;2024-02-28T02:58:24;29.57;;;17.27;;
70126;SDS011;57491;42.694;23.314;2024-02-28T03:00:51;29.20;;;16.48;;
70126;SDS011;57491;42.694;23.314;2024-02-28T03:03:18;29.70;;;16.73;;
70126;SDS011;57491;42.694;23.314;2024-02-28T03:05:46;35.23;;;17.53;;
70126;SDS011;57491;42.694;23.314;2024-02-28T03:08:13;31.92;;;16.98;;
70126;SDS011;57491;42.694;23.314;2024-02-28T03:10:42;31.80;;;17.05;;
70126;SDS011;57491;42.694;23.314;2024-02-28T03:13:09;34.47;;;17.42;;
70126;SDS011;57491;42.694;23.314;2024-02-28T03:15:37;33.37;;;18.33;;
70126;SDS011;57491;42.694;23.314;2024-02-28T03:18:05;31.85;;;16.38;;
70126;SDS011;57491;42.694;23.314;2024-02-28T03:20:32;35.73;;;17.93;;
70126;SDS011;57491;42.694;23.314;2024-02-28T03:23:00;33.13;;;18.40;;
70126;SDS011;57491;42.694;23.314;2024-02-28T03:27:54;34.47;;;17.87;;
70126;SDS011;57491;42.694;23.314;2024-02-28T03:30:22;33.87;;;17.67;;
70126;SDS011;57491;42.694;23.314;2024-02-28T03:32:51;33.05;;;18.10;;
70126;SDS011;57491;42.694;23.314;2024-02-28T03:35:18;33.30;;;17.05;;
70126;SDS011;57491;42.694;23.314;2024-02-28T03:37:45;27.83;;;16.53;;
70126;SDS011;57491;42.694;23.314;2024-02-28T03:40:12;31.30;;;17.67;;
70126;SDS011;57491;42.694;23.314;2024-02-28T03:42:40;33.25;;;16.52;;
70126;SDS011;57491;42.694;23.314;2024-02-28T03:45:07;29.40;;;15.07;;
70126;SDS011;57491;42.694;23.314;2024-02-28T03:47:35;28.15;;;16.65;;
70126;SDS011;57491;42.694;23.314;2024-02-28T03:50:04;30.92;;;17.02;;
70126;SDS011;57491;42.694;23.314;2024-02-28T03:52:32;26.88;;;15.98;;
70126;SDS011;57491;42.694;23.314;2024-02-28T03:54:59;30.77;;;16.80;;
70126;SDS011;57491;42.694;23.314;2024-02-28T03:57:27;28.87;;;16.23;;
70126;SDS011;57491;42.694;23.314;2024-02-28T03:59:54;33.50;;;17.80;;
70126;SDS011;57491;42.694;23.314;2024-02-28T04:02:21;28.30;;;16.05;;
70126;SDS011;57491;42.694;23.314;2024-02-28T04:04:48;27.43;;;16.30;;
70126;SDS011;57491;42.694;23.314;2024-02-28T04:07:17;29.63;;;15.95;;
70126;SDS011;57491;42.694;23.314;2024-02-28T04:09:44;32.75;;;16.83;;
70126;SDS011;57491;42.694;23.314;2024-02-28T04:12:12;31.33;;;16.17;;
70126;SDS011;57491;42.694;23.314;2024-02-28T04:14:39;29.27;;;16.80;;
70126;SDS011;57491;42.694;23.314;2024-02-28T04:17:06;31.60;;;15.98;;
70126;SDS011;57491;42.694;23.314;2024-02-28T04:19:33;37.85;;;16.85;;
70126;SDS011;57491;42.694;23.314;2024-02-28T04:22:03;30.90;;;16.55;;
70126;SDS011;57491;42.694;23.314;2024-02-28T04:24:31;31.92;;;17.20;;
70126;SDS011;57491;42.694;23.314;2024-02-28T04:26:59;35.70;;;18.35;;
70126;SDS011;57491;42.694;23.314;2024-02-28T04:29:28;29.02;;;16.48;;
70126;SDS011;57491;42.694;23.314;2024-02-28T04:31:55;35.07;;;18.00;;
70126;SDS011;57491;42.694;23.314;2024-02-28T04:34:23;31.73;;;18.10;;
70126;SDS011;57491;42.694;23.314;2024-02-28T04:36:50;36.33;;;17.17;;
70126;SDS011;57491;42.694;23.314;2024-02-28T04:39:17;29.13;;;16.23;;
70126;SDS011;57491;42.694;23.314;2024-02-28T04:41:46;30.00;;;17.35;;
70126;SDS011;57491;42.694;23.314;2024-02-28T04:44:13;34.72;;;18.33;;
70126;SDS011;57491;42.694;23.314;2024-02-28T04:46:40;36.35;;;18.25;;
70126;SDS011;57491;42.694;23.314;2024-02-28T04:49:08;35.03;;;17.98;;
70126;SDS011;57491;42.694;23.314;2024-02-28T04:51:36;32.40;;;17.00;;
70126;SDS011;57491;42.694;23.314;2024-02-28T04:54:03;32.47;;;17.45;;
70126;SDS011;57491;42.694;23.314;2024-02-28T04:56:30;40.75;;;18.67;;
70126;SDS011;57491;42.694;23.314;2024-02-28T04:58:59;40.90;;;19.70;;
70126;SDS011;57491;42.694;23.314;2024-02-28T05:01:26;38.25;;;20.65;;
70126;SDS011;57491;42.694;23.314;2024-02-28T05:03:54;37.13;;;20.25;;
70126;SDS011;57491;42.694;23.314;2024-02-28T05:06:21;34.03;;;18.63;;
70126;SDS011;57491;42.694;23.314;2024-02-28T05:08:48;34.00;;;19.57;;
70126;SDS011;57491;42.694;23.314;2024-02-28T05:11:16;36.28;;;18.45;;
70126;SDS011;57491;42.694;23.314;2024-02-28T05:13:43;31.45;;;17.60;;
70126;SDS011;57491;42.694;23.314;2024-02-28T05:16:15;39.50;;;17.73;;
70126;SDS011;57491;42.694;23.314;2024-02-28T05:18:43;34.63;;;18.05;;
70126;SDS011;57491;42.694;23.314;2024-02-28T05:21:10;41.83;;;18.40;;
70126;SDS011;57491;42.694;23.314;2024-02-28T05:23:37;40.97;;;19.10;;
70126;SDS011;57491;42.694;23.314;2024-02-28T05:26:04;34.33;;;18.90;;
70126;SDS011;57491;42.694;23.314;2024-02-28T05:28:32;42.30;;;20.13;;
70126;SDS011;57491;42.694;23.314;2024-02-28T05:30:59;37.63;;;19.73;;
70126;SDS011;57491;42.694;23.314;2024-02-28T05:33:30;36.28;;;19.58;;
70126;SDS011;57491;42.694;23.314;2024-02-28T05:35:57;38.53;;;19.98;;
70126;SDS011;57491;42.694;23.314;2024-02-28T05:38:25;44.07;;;22.07;;
70126;SDS011;57491;42.694;23.314;2024-02-28T05:40:52;43.70;;;21.40;;
70126;SDS011;57491;42.694;23.314;2024-02-28T05:43:20;39.63;;;21.52;;
70126;SDS011;57491;42.694;23.314;2024-02-28T05:45:47;42.73;;;22.70;;
70126;SDS011;57491;42.694;23.314;2024-02-28T05:48:14;47.20;;;21.93;;
70126;SDS011;57491;42.694;23.314;2024-02-28T05:50:43;45.08;;;23.23;;
70126;SDS011;57491;42.694;23.314;2024-02-28T05:53:10;42.08;;;20.05;;
70126;SDS011;57491;42.694;23.314;2024-02-28T05:55:37;51.07;;;22.13;;
70126;SDS011;57491;42.694;23.314;2024-02-28T05:58:05;39.65;;;21.23;;
70126;SDS011;57491;42.694;23.314;2024-02-28T06:00:33;47.57;;;23.57;;
70126;SDS011;57491;42.694;23.314;2024-02-28T06:03:01;38.15;;;22.15;;
70126;SDS011;57491;42.694;23.314;2024-02-28T06:05:28;38.03;;;22.03;;
70126;SDS011;57491;42.694;23.314;2024-02-28T06:07:57;38.03;;;22.17;;
70126;SDS011;57491;42.694;23.314;2024-02-28T06:10:24;43.40;;;21.25;;
70126;SDS011;57491;42.694;23.314;2024-02-28T06:12:52;41.17;;;20.85;;
70126;SDS011;57491;42.694;23.314;2024-02-28T06:15:19;39.45;;;22.00;;
70126;SDS011;57491;42.694;23.314;2024-02-28T06:17:46;38.92;;;22.15;;
70126;SDS011;57491;42.694;23.314;2024-02-28T06:20:14;35.72;;;21.00;;
70126;SDS011;57491;42.694;23.314;2024-02-28T06:22:41;55.10;;;22.35;;
70126;SDS011;57491;42.694;23.314;2024-02-28T06:25:10;45.92;;;19.77;;
70126;SDS011;57491;42.694;23.314;2024-02-28T06:27:43;42.40;;;18.92;;
70126;SDS011;57491;42.694;23.314;2024-02-28T06:30:11;31.05;;;18.50;;
70126;SDS011;57491;42.694;23.314;2024-02-28T06:40:00;34.23;;;16.90;;
70126;SDS011;57491;42.694;23.314;2024-02-28T06:42:31;34.85;;;16.95;;
70126;SDS011;57491;42.694;23.314;2024-02-28T06:44:58;34.08;;;16.83;;
70126;SDS011;57491;42.694;23.314;2024-02-28T06:47:25;29.08;;;16.98;;
70126;SDS011;57491;42.694;23.314;2024-02-28T06:49:53;31.80;;;18.63;;
70126;SDS011;57491;42.694;23.314;2024-02-28T06:52:21;45.70;;;20.23;;
70126;SDS011;57491;42.694;23.314;2024-02-28T06:54:48;36.85;;;19.30;;
70126;SDS011;57491;42.694;23.314;2024-02-28T06:57:15;37.17;;;18.45;;
70126;SDS011;57491;42.694;23.314;2024-02-28T06:59:44;39.35;;;18.27;;
70126;SDS011;57491;42.694;23.314;2024-02-28T07:02:11;36.33;;;19.77;;
70126;SDS011;57491;42.694;23.314;2024-02-28T07:04:38;32.47;;;18.75;;
70126;SDS011;57491;42.694;23.314;2024-02-28T07:07:06;36.22;;;18.63;;
70126;SDS011;57491;42.694;23.314;2024-02-28T07:09:34;32.67;;;18.40;;
70126;SDS011;57491;42.694;23.314;2024-02-28T07:12:01;35.65;;;18.67;;
70126;SDS011;57491;42.694;23.314;2024-02-28T07:14:28;30.58;;;18.23;;
70126;SDS011;57491;42.694;23.314;2024-02-28T07:16:57;32.80;;;17.95;;
70126;SDS011;57491;42.694;23.314;2024-02-28T07:19:24;35.35;;;19.58;;
70126;SDS011;57491;42.694;23.314;2024-02-28T07:21:51;32.60;;;17.33;;
70126;SDS011;57491;42.694;23.314;2024-02-28T07:24:19;36.92;;;18.60;;
70126;SDS011;57491;42.694;23.314;2024-02-28T07:26:46;34.90;;;18.02;;
70126;SDS011;57491;42.694;23.314;2024-02-28T07:29:14;34.63;;;19.10;;
70126;SDS011;57491;42.694;23.314;2024-02-28T07:31:41;33.17;;;18.70;;
70126;SDS011;57491;42.694;23.314;2024-02-28T07:34:10;39.42;;;19.02;;
70126;SDS011;57491;42.694;23.314;2024-02-28T07:36:38;36.28;;;19.52;;
70126;SDS011;57491;42.694;23.314;2024-02-28T07:39:05;35.30;;;21.85;;
70126;SDS011;57491;42.694;23.314;2024-02-28T07:41:32;33.47;;;18.73;;
70126;SDS011;57491;42.694;23.314;2024-02-28T07:43:59;38.83;;;18.23;;
70126;SDS011;57491;42.694;23.314;2024-02-28T07:46:27;29.85;;;18.67;;
70126;SDS011;57491;42.694;23.314;2024-02-28T07:49:14;37.10;;;19.33;;
70126;SDS011;57491;42.694;23.314;2024-02-28T07:51:42;35.75;;;20.63;;
70126;SDS011;57491;42.694;23.314;2024-02-28T07:54:09;30.98;;;18.75;;
70126;SDS011;57491;42.694;23.314;2024-02-28T07:56:37;38.35;;;17.83;;
70126;SDS011;57491;42.694;23.314;2024-02-28T07:59:04;38.95;;;19.75;;
70126;SDS011;57491;42.694;23.314;2024-02-28T08:01:31;33.70;;;20.42;;
70126;SDS011;57491;42.694;23.314;2024-02-28T08:03:59;36.33;;;19.35;;
70126;SDS011;57491;42.694;23.314;2024-02-28T08:06:28;35.40;;;18.58;;
70126;SDS011;57491;42.694;23.314;2024-02-28T08:08:56;35.10;;;19.98;;
70126;SDS011;57491;42.694;23.314;2024-02-28T08:11:24;37.00;;;20.10;;
70126;SDS011;57491;42.694;23.314;2024-02-28T08:16:18;39.30;;;21.80;;
70126;SDS011;57491;42.694;23.314;2024-02-28T08:18:46;32.88;;;18.95;;
70126;SDS011;57491;42.694;23.314;2024-02-28T08:21:13;37.78;;;19.70;;
70126;SDS011;57491;42.694;23.314;2024-02-28T08:23:42;33.70;;;20.65;;
70126;SDS011;57491;42.694;23.314;2024-02-28T08:26:09;30.85;;;19.27;;
70126;SDS011;57491;42.694;23.314;2024-02-28T08:28:37;35.88;;;21.88;;
70126;SDS011;57491;42.694;23.314;2024-02-28T08:31:04;38.72;;;24.58;;
70126;SDS011;57491;42.694;23.314;2024-02-28T08:33:32;39.00;;;21.10;;
70126;SDS011;57491;42.694;23.314;2024-02-28T08:35:59;33.95;;;20.48;;
70126;SDS011;57491;42.694;23.314;2024-02-28T08:38:26;35.55;;;21.30;;
70126;SDS011;57491;42.694;23.314;2024-02-28T08:40:55;39.10;;;21.63;;
70126;SDS011;57491;42.694;23.314;2024-02-28T08:43:22;32.55;;;20.10;;
70126;SDS011;57491;42.694;23.314;2024-02-28T08:45:50;29.75;;;21.00;;
70126;SDS011;57491;42.694;23.314;2024-02-28T08:48:17;32.22;;;21.08;;
70126;SDS011;57491;42.694;23.314;2024-02-28T08:50:46;39.33;;;25.55;;
70126;SDS011;57491;42.694;23.314;2024-02-28T08:53:13;37.53;;;22.70;;
70126;SDS011;57491;42.694;23.314;2024-02-28T08:55:40;28.13;;;17.85;;
70126;SDS011;57491;42.694;23.314;2024-02-28T08:58:09;30.23;;;19.48;;
70126;SDS011;57491;42.694;23.314;2024-02-28T09:00:36;30.88;;;18.38;;
70126;SDS011;57491;42.694;23.314;2024-02-28T09:03:04;29.50;;;18.90;;
70126;SDS011;57491;42.694;23.314;2024-02-28T09:05:32;28.77;;;18.25;;
70126;SDS011;57491;42.694;23.314;2024-02-28T09:10:26;30.75;;;18.33;;
70126;SDS011;57491;42.694;23.314;2024-02-28T09:12:55;25.30;;;15.85;;
70126;SDS011;57491;42.694;23.314;2024-02-28T09:15:24;21.80;;;14.55;;
70126;SDS011;57491;42.694;23.314;2024-02-28T09:17:51;23.10;;;15.80;;
70126;SDS011;57491;42.694;23.314;2024-02-28T09:20:19;24.98;;;16.15;;
70126;SDS011;57491;42.694;23.314;2024-02-28T09:22:46;30.52;;;19.02;;
70126;SDS011;57491;42.694;23.314;2024-02-28T09:25:14;21.42;;;15.38;;
70126;SDS011;57491;42.694;23.314;2024-02-28T09:27:43;29.77;;;19.05;;
70126;SDS011;57491;42.694;23.314;2024-02-28T09:30:12;28.67;;;15.95;;
70126;SDS011;57491;42.694;23.314;2024-02-28T09:32:43;23.83;;;14.98;;
70126;SDS011;57491;42.694;23.314;2024-02-28T09:35:10;27.55;;;17.55;;
70126;SDS011;57491;42.694;23.314;2024-02-28T09:37:38;29.58;;;18.15;;
70126;SDS011;57491;42.694;23.314;2024-02-28T09:40:08;31.83;;;16.88;;
70126;SDS011;57491;42.694;23.314;2024-02-28T09:42:36;26.35;;;15.73;;
70126;SDS011;57491;42.694;23.314;2024-02-28T09:45:04;26.23;;;17.42;;
70126;SDS011;57491;42.694;23.314;2024-02-28T09:47:35;27.42;;;17.58;;
70126;SDS011;57491;42.694;23.314;2024-02-28T09:50:04;25.67;;;17.30;;
70126;SDS011;57491;42.694;23.314;2024-02-28T09:52:33;27.08;;;16.13;;
70126;SDS011;57491;42.694;23.314;2024-02-28T09:55:00;25.70;;;16.10;;
70126;SDS011;57491;42.694;23.314;2024-02-28T09:59:56;19.85;;;13.23;;
70126;SDS011;57491;42.694;23.314;2024-02-28T10:02:26;26.35;;;16.15;;
70126;SDS011;57491;42.694;23.314;2024-02-28T10:04:55;25.25;;;15.00;;
70126;SDS011;57491;42.694;23.314;2024-02-28T10:07:25;24.40;;;14.98;;
70126;SDS011;57491;42.694;23.314;2024-02-28T10:09:54;25.40;;;14.27;;
70126;SDS011;57491;42.694;23.314;2024-02-28T10:12:21;21.15;;;13.52;;
70126;SDS011;57491;42.694;23.314;2024-02-28T10:14:49;20.80;;;12.52;;
70126;SDS011;57491;42.694;23.314;2024-02-28T10:17:17;21.08;;;12.57;;
70126;SDS011;57491;42.694;23.314;2024-02-28T10:19:44;18.98;;;11.85;;
70126;SDS011;57491;42.694;23.314;2024-02-28T10:22:11;24.75;;;14.38;;
70126;SDS011;57491;42.694;23.314;2024-02-28T10:24:40;19.58;;;12.32;;
70126;SDS011;57491;42.694;23.314;2024-02-28T10:27:07;24.77;;;14.80;;
70126;SDS011;57491;42.694;23.314;2024-02-28T10:29:34;19.75;;;13.07;;
70126;SDS011;57491;42.694;23.314;2024-02-28T10:32:02;16.88;;;10.90;;
70126;SDS011;57491;42.694;23.314;2024-02-28T10:34:31;22.70;;;12.63;;
70126;SDS011;57491;42.694;23.314;2024-02-28T10:37:00;22.52;;;12.25;;
70126;SDS011;57491;42.694;23.314;2024-02-28T10:39:30;25.45;;;14.60;;
70126;SDS011;57491;42.694;23.314;2024-02-28T10:42:01;21.52;;;12.77;;
70126;SDS011;57491;42.694;23.314;2024-02-28T10:44:30;22.17;;;12.48;;
70126;SDS011;57491;42.694;23.314;2024-02-28T10:46:59;22.23;;;11.77;;
70126;SDS011;57491;42.694;23.314;2024-02-28T10:49:28;19.98;;;12.15;;
70126;SDS011;57491;42.694;23.314;2024-02-28T10:51:56;21.02;;;11.05;;
70126;SDS011;57491;42.694;23.314;2024-02-28T10:54:25;15.45;;;11.30;;
70126;SDS011;57491;42.694;23.314;2024-02-28T10:56:56;20.65;;;10.32;;
70126;SDS011;57491;42.694;23.314;2024-02-28T10:59:26;14.80;;;10.25;;
70126;SDS011;57491;42.694;23.314;2024-02-28T11:01:56;14.88;;;9.90;;
70126;SDS011;57491;42.694;23.314;2024-02-28T11:04:24;14.38;;;10.02;;
70126;SDS011;57491;42.694;23.314;2024-02-28T11:09:21;19.30;;;12.02;;
70126;SDS011;57491;42.694;23.314;2024-02-28T11:11:49;18.73;;;11.95;;
70126;SDS011;57491;42.694;23.314;2024-02-28T11:14:17;15.80;;;10.57;;
70126;SDS011;57491;42.694;23.314;2024-02-28T11:16:48;19.63;;;13.60;;
70126;SDS011;57491;42.694;23.314;2024-02-28T11:19:27;15.88;;;11.05;;
70126;SDS011;57491;42.694;23.314;2024-02-28T11:21:56;14.25;;;9.23;;
70126;SDS011;57491;42.694;23.314;2024-02-28T11:24:24;16.35;;;10.32;;
70126;SDS011;57491;42.694;23.314;2024-02-28T11:26:56;13.27;;;8.88;;
70126;SDS011;57491;42.694;23.314;2024-02-28T11:29:24;15.82;;;9.73;;
70126;SDS011;57491;42.694;23.314;2024-02-28T11:31:53;16.98;;;10.95;;
70126;SDS011;57491;42.694;23.314;2024-02-28T11:34:21;14.05;;;8.35;;
70126;SDS011;57491;42.694;23.314;2024-02-28T11:36:48;8.55;;;6.85;;
70126;SDS011;57491;42.694;23.314;2024-02-28T11:39:16;9.35;;;5.97;;
70126;SDS011;57491;42.694;23.314;2024-02-28T11:41:46;15.77;;;7.85;;
70126;SDS011;57491;42.694;23.314;2024-02-28T11:44:15;13.70;;;9.15;;
70126;SDS011;57491;42.694;23.314;2024-02-28T11:46:43;12.27;;;9.73;;
70126;SDS011;57491;42.694;23.314;2024-02-28T11:49:14;12.07;;;8.02;;
70126;SDS011;57491;42.694;23.314;2024-02-28T11:51:43;16.50;;;9.40;;
70126;SDS011;57491;42.694;23.314;2024-02-28T11:54:11;20.25;;;10.73;;
70126;SDS011;57491;42.694;23.314;2024-02-28T11:56:38;14.13;;;9.88;;
70126;SDS011;57491;42.694;23.314;2024-02-28T11:59:06;14.43;;;8.23;;
70126;SDS011;57491;42.694;23.314;2024-02-28T12:01:35;15.13;;;9.88;;
70126;SDS011;57491;42.694;23.314;2024-02-28T12:04:03;11.98;;;8.30;;
70126;SDS011;57491;42.694;23.314;2024-02-28T12:06:33;13.05;;;9.48;;
70126;SDS011;57491;42.694;23.314;2024-02-28T12:09:01;14.25;;;9.60;;
70126;SDS011;57491;42.694;23.314;2024-02-28T12:11:30;14.38;;;9.57;;
70126;SDS011;57491;42.694;23.314;2024-02-28T12:13:58;14.50;;;9.38;;
70126;SDS011;57491;42.694;23.314;2024-02-28T12:16:26;13.98;;;9.45;;
70126;SDS011;57491;42.694;23.314;2024-02-28T12:18:54;15.20;;;9.60;;
70126;SDS011;57491;42.694;23.314;2024-02-28T12:21:21;17.67;;;8.50;;
70126;SDS011;57491;42.694;23.314;2024-02-28T12:23:50;16.15;;;7.93;;
70126;SDS011;57491;42.694;23.314;2024-02-28T12:26:17;11.52;;;8.48;;
70126;SDS011;57491;42.694;23.314;2024-02-28T12:28:45;13.55;;;6.90;;
70126;SDS011;57491;42.694;23.314;2024-02-28T12:31:13;11.35;;;6.22;;
70126;SDS011;57491;42.694;23.314;2024-02-28T12:33:40;8.32;;;3.97;;
70126;SDS011;57491;42.694;23.314;2024-02-28T12:36:08;7.40;;;6.15;;
70126;SDS011;57491;42.694;23.314;2024-02-28T12:38:35;9.10;;;5.75;;
70126;SDS011;57491;42.694;23.314;2024-02-28T12:41:04;13.60;;;6.05;;
70126;SDS011;57491;42.694;23.314;2024-02-28T12:43:31;10.95;;;7.90;;
70126;SDS011;57491;42.694;23.314;2024-02-28T12:45:59;11.18;;;8.02;;
70126;SDS011;57491;42.694;23.314;2024-02-28T12:48:26;14.23;;;8.45;;
70126;SDS011;57491;42.694;23.314;2024-02-28T12:50:54;10.88;;;8.27;;
70126;SDS011;57491;42.694;23.314;2024-02-28T12:53:21;13.40;;;9.38;;
70126;SDS011;57491;42.694;23.314;2024-02-28T12:55:48;11.10;;;8.85;;
70126;SDS011;57491;42.694;23.314;2024-02-28T12:58:17;11.40;;;8.13;;
70126;SDS011;57491;42.694;23.314;2024-02-28T13:00:44;13.70;;;8.50;;
70126;SDS011;57491;42.694;23.314;2024-02-28T13:03:11;10.65;;;8.05;;
70126;SDS011;57491;42.694;23.314;2024-02-28T13:05:39;10.90;;;8.13;;
70126;SDS011;57491;42.694;23.314;2024-02-28T13:08:07;14.65;;;8.23;;
70126;SDS011;57491;42.694;23.314;2024-02-28T13:10:34;13.90;;;8.50;;
70126;SDS011;57491;42.694;23.314;2024-02-28T13:13:06;10.32;;;7.93;;
70126;SDS011;57491;42.694;23.314;2024-02-28T13:15:35;15.13;;;8.68;;
70126;SDS011;57491;42.694;23.314;2024-02-28T13:18:03;12.73;;;8.23;;
70126;SDS011;57491;42.694;23.314;2024-02-28T13:20:34;16.17;;;8.63;;
70126;SDS011;57491;42.694;23.314;2024-02-28T13:23:03;15.80;;;8.55;;
70126;SDS011;57491;42.694;23.314;2024-02-28T13:27:57;11.07;;;7.85;;
70126;SDS011;57491;42.694;23.314;2024-02-28T13:30:25;17.10;;;8.05;;
70126;SDS011;57491;42.694;23.314;2024-02-28T13:32:53;10.52;;;7.53;;
70126;SDS011;57491;42.694;23.314;2024-02-28T13:35:21;10.77;;;7.45;;
70126;SDS011;57491;42.694;23.314;2024-02-28T13:37:48;14.30;;;8.25;;
70126;SDS011;57491;42.694;23.314;2024-02-28T13:40:15;19.13;;;8.60;;
70126;SDS011;57491;42.694;23.314;2024-02-28T13:42:43;14.55;;;8.30;;
70126;SDS011;57491;42.694;23.314;2024-02-28T13:45:10;13.85;;;7.88;;
70126;SDS011;57491;42.694;23.314;2024-02-28T13:47:38;15.98;;;8.35;;
70126;SDS011;57491;42.694;23.314;2024-02-28T13:50:07;10.43;;;6.55;;
70126;SDS011;57491;42.694;23.314;2024-02-28T13:52:35;12.20;;;5.40;;
70126;SDS011;57491;42.694;23.314;2024-02-28T13:55:02;11.02;;;8.00;;
70126;SDS011;57491;42.694;23.314;2024-02-28T13:57:30;12.57;;;6.88;;
70126;SDS011;57491;42.694;23.314;2024-02-28T13:59:57;10.57;;;6.43;;
70126;SDS011;57491;42.694;23.314;2024-02-28T14:02:25;10.13;;;6.38;;
70126;SDS011;57491;42.694;23.314;2024-02-28T14:04:52;12.55;;;6.93;;
70126;SDS011;57491;42.694;23.314;2024-02-28T14:07:21;13.27;;;6.40;;
70126;SDS011;57491;42.694;23.314;2024-02-28T14:09:49;11.73;;;6.57;;
70126;SDS011;57491;42.694;23.314;2024-02-28T14:12:16;10.43;;;6.32;;
70126;SDS011;57491;42.694;23.314;2024-02-28T14:14:43;9.30;;;5.93;;
70126;SDS011;57491;42.694;23.314;2024-02-28T14:17:11;10.93;;;5.72;;
70126;SDS011;57491;42.694;23.314;2024-02-28T14:19:39;9.73;;;5.68;;
70126;SDS011;57491;42.694;23.314;2024-02-28T14:22:06;7.93;;;5.35;;
70126;SDS011;57491;42.694;23.314;2024-02-28T14:24:37;10.63;;;5.72;;
70126;SDS011;57491;42.694;23.314;2024-02-28T14:27:05;12.95;;;6.38;;
70126;SDS011;57491;42.694;23.314;2024-02-28T14:29:32;13.10;;;5.70;;
70126;SDS011;57491;42.694;23.314;2024-02-28T14:32:00;9.95;;;6.10;;
70126;SDS011;57491;42.694;23.314;2024-02-28T14:34:27;8.40;;;6.00;;
70126;SDS011;57491;42.694;23.314;2024-02-28T14:36:57;10.13;;;5.90;;